sensor_id;sensor_type;location;lat;lon;timestamp;temperature;humidity
431;DHT22;202;48.764;9.172;2022-09-02T00:02:13;18.10;51.20
431;DHT22;202;48.764;9.172;2022-09-02T00:04:43;18.10;51.20
431;DHT22;202;48.764;9.172;2022-09-02T00:07:10;18.00;51.70
431;DHT22;202;48.764;9.172;2022-09-02T00:09:38;18.00;51.90
431;DHT22;202;48.764;9.172;2022-09-02T00:12:07;18.00;52.60
431;DHT22;202;48.764;9.172;2022-09-02T00:14:38;18.00;52.10
431;DHT22;202;48.764;9.172;2022-09-02T00:17:05;18.00;51.80
431;DHT22;202;48.764;9.172;2022-09-02T00:19:35;17.90;52.10
431;DHT22;202;48.764;9.172;2022-09-02T00:22:03;17.90;52.10
431;DHT22;202;48.764;9.172;2022-09-02T00:24:30;18.00;51.70
431;DHT22;202;48.764;9.172;2022-09-02T00:26:59;17.90;51.90
431;DHT22;202;48.764;9.172;2022-09-02T00:29:27;17.80;52.20
431;DHT22;202;48.764;9.172;2022-09-02T00:31:58;17.80;52.40
431;DHT22;202;48.764;9.172;2022-09-02T00:34:26;17.80;52.50
431;DHT22;202;48.764;9.172;2022-09-02T00:36:55;17.80;52.70
431;DHT22;202;48.764;9.172;2022-09-02T00:39:27;17.70;52.80
431;DHT22;202;48.764;9.172;2022-09-02T00:41:58;17.60;53.70
431;DHT22;202;48.764;9.172;2022-09-02T00:44:26;17.70;53.10
431;DHT22;202;48.764;9.172;2022-09-02T00:46:54;17.70;53.30
431;DHT22;202;48.764;9.172;2022-09-02T00:49:23;17.70;53.00
431;DHT22;202;48.764;9.172;2022-09-02T00:51:59;17.70;52.70
431;DHT22;202;48.764;9.172;2022-09-02T00:54:30;17.70;53.10
431;DHT22;202;48.764;9.172;2022-09-02T00:57:02;17.70;52.90
431;DHT22;202;48.764;9.172;2022-09-02T00:59:42;17.60;53.20
431;DHT22;202;48.764;9.172;2022-09-02T01:02:10;17.50;53.70
431;DHT22;202;48.764;9.172;2022-09-02T01:04:38;17.40;54.50
431;DHT22;202;48.764;9.172;2022-09-02T01:07:07;17.40;54.60
431;DHT22;202;48.764;9.172;2022-09-02T01:09:35;17.50;54.60
431;DHT22;202;48.764;9.172;2022-09-02T01:12:03;17.50;54.90
431;DHT22;202;48.764;9.172;2022-09-02T01:14:31;17.40;55.10
431;DHT22;202;48.764;9.172;2022-09-02T01:17:00;17.40;55.10
431;DHT22;202;48.764;9.172;2022-09-02T01:19:36;17.40;55.80
431;DHT22;202;48.764;9.172;2022-09-02T01:22:14;17.40;55.90
431;DHT22;202;48.764;9.172;2022-09-02T01:24:49;17.30;56.20
431;DHT22;202;48.764;9.172;2022-09-02T01:27:20;17.40;56.00
431;DHT22;202;48.764;9.172;2022-09-02T01:29:50;17.40;56.10
431;DHT22;202;48.764;9.172;2022-09-02T01:32:22;17.40;55.80
431;DHT22;202;48.764;9.172;2022-09-02T01:34:52;17.40;55.90
431;DHT22;202;48.764;9.172;2022-09-02T01:37:21;17.40;55.90
431;DHT22;202;48.764;9.172;2022-09-02T01:39:48;17.20;57.20
431;DHT22;202;48.764;9.172;2022-09-02T01:42:17;17.30;56.60
431;DHT22;202;48.764;9.172;2022-09-02T01:44:57;17.10;56.50
431;DHT22;202;48.764;9.172;2022-09-02T01:47:32;17.20;57.00
431;DHT22;202;48.764;9.172;2022-09-02T01:49:59;17.10;57.50
431;DHT22;202;48.764;9.172;2022-09-02T01:52:30;17.00;58.40
431;DHT22;202;48.764;9.172;2022-09-02T01:54:57;17.10;57.20
431;DHT22;202;48.764;9.172;2022-09-02T01:57:24;17.10;56.20
431;DHT22;202;48.764;9.172;2022-09-02T01:59:57;17.20;55.30
431;DHT22;202;48.764;9.172;2022-09-02T02:02:26;17.10;55.50
431;DHT22;202;48.764;9.172;2022-09-02T02:04:56;17.20;54.30
431;DHT22;202;48.764;9.172;2022-09-02T02:07:23;17.20;54.40
431;DHT22;202;48.764;9.172;2022-09-02T02:09:51;17.20;55.00
431;DHT22;202;48.764;9.172;2022-09-02T02:12:18;17.10;55.10
431;DHT22;202;48.764;9.172;2022-09-02T02:14:47;17.00;56.20
431;DHT22;202;48.764;9.172;2022-09-02T02:17:14;17.00;56.10
431;DHT22;202;48.764;9.172;2022-09-02T02:19:44;17.00;55.70
431;DHT22;202;48.764;9.172;2022-09-02T02:22:11;17.00;55.50
431;DHT22;202;48.764;9.172;2022-09-02T02:24:38;17.00;55.10
431;DHT22;202;48.764;9.172;2022-09-02T02:27:07;17.00;54.90
431;DHT22;202;48.764;9.172;2022-09-02T02:29:34;16.90;56.10
431;DHT22;202;48.764;9.172;2022-09-02T02:32:01;16.90;55.10
431;DHT22;202;48.764;9.172;2022-09-02T02:34:28;16.80;55.10
431;DHT22;202;48.764;9.172;2022-09-02T02:36:57;17.00;54.70
431;DHT22;202;48.764;9.172;2022-09-02T02:39:25;16.90;55.30
431;DHT22;202;48.764;9.172;2022-09-02T02:41:52;17.00;55.10
431;DHT22;202;48.764;9.172;2022-09-02T02:44:20;16.90;54.40
431;DHT22;202;48.764;9.172;2022-09-02T02:46:51;16.90;54.40
431;DHT22;202;48.764;9.172;2022-09-02T02:49:19;16.90;54.40
431;DHT22;202;48.764;9.172;2022-09-02T02:51:47;16.90;55.10
431;DHT22;202;48.764;9.172;2022-09-02T02:54:14;16.90;54.30
431;DHT22;202;48.764;9.172;2022-09-02T02:56:42;16.90;54.20
431;DHT22;202;48.764;9.172;2022-09-02T02:59:17;16.80;54.30
431;DHT22;202;48.764;9.172;2022-09-02T03:01:46;16.80;54.10
431;DHT22;202;48.764;9.172;2022-09-02T03:04:13;16.80;54.20
431;DHT22;202;48.764;9.172;2022-09-02T03:06:40;16.90;54.00
431;DHT22;202;48.764;9.172;2022-09-02T03:09:07;16.80;54.00
431;DHT22;202;48.764;9.172;2022-09-02T03:11:34;16.80;53.90
431;DHT22;202;48.764;9.172;2022-09-02T03:14:01;16.80;53.60
431;DHT22;202;48.764;9.172;2022-09-02T03:16:29;16.80;53.40
431;DHT22;202;48.764;9.172;2022-09-02T03:18:58;16.70;53.80
431;DHT22;202;48.764;9.172;2022-09-02T03:21:28;16.60;55.10
431;DHT22;202;48.764;9.172;2022-09-02T03:23:55;16.50;55.20
431;DHT22;202;48.764;9.172;2022-09-02T03:26:23;16.60;54.80
431;DHT22;202;48.764;9.172;2022-09-02T03:28:54;16.70;54.50
431;DHT22;202;48.764;9.172;2022-09-02T03:31:24;16.60;54.40
431;DHT22;202;48.764;9.172;2022-09-02T03:34:00;16.50;54.30
431;DHT22;202;48.764;9.172;2022-09-02T03:36:34;16.50;54.80
431;DHT22;202;48.764;9.172;2022-09-02T03:39:05;16.50;54.80
431;DHT22;202;48.764;9.172;2022-09-02T03:41:33;16.50;55.30
431;DHT22;202;48.764;9.172;2022-09-02T03:44:09;16.40;55.50
431;DHT22;202;48.764;9.172;2022-09-02T03:46:36;16.30;56.70
431;DHT22;202;48.764;9.172;2022-09-02T03:49:07;16.30;57.70
431;DHT22;202;48.764;9.172;2022-09-02T03:51:34;16.30;56.70
431;DHT22;202;48.764;9.172;2022-09-02T03:54:10;16.30;56.50
431;DHT22;202;48.764;9.172;2022-09-02T03:56:38;16.30;56.50
431;DHT22;202;48.764;9.172;2022-09-02T03:59:15;16.40;56.30
431;DHT22;202;48.764;9.172;2022-09-02T04:01:42;16.30;56.00
431;DHT22;202;48.764;9.172;2022-09-02T04:04:19;16.30;56.20
431;DHT22;202;48.764;9.172;2022-09-02T04:06:46;16.20;56.40
431;DHT22;202;48.764;9.172;2022-09-02T04:09:15;16.20;56.40
431;DHT22;202;48.764;9.172;2022-09-02T04:11:48;16.20;56.30
431;DHT22;202;48.764;9.172;2022-09-02T04:14:17;16.20;56.30
431;DHT22;202;48.764;9.172;2022-09-02T04:20:48;16.20;56.20
431;DHT22;202;48.764;9.172;2022-09-02T04:23:15;16.20;56.50
431;DHT22;202;48.764;9.172;2022-09-02T04:25:54;16.20;56.10
431;DHT22;202;48.764;9.172;2022-09-02T04:28:25;16.20;56.50
431;DHT22;202;48.764;9.172;2022-09-02T04:30:52;16.20;56.30
431;DHT22;202;48.764;9.172;2022-09-02T04:33:20;16.20;56.60
431;DHT22;202;48.764;9.172;2022-09-02T04:35:49;16.20;56.40
431;DHT22;202;48.764;9.172;2022-09-02T04:46:31;16.20;56.80
431;DHT22;202;48.764;9.172;2022-09-02T04:49:00;16.10;57.10
431;DHT22;202;48.764;9.172;2022-09-02T04:51:29;15.90;58.60
431;DHT22;202;48.764;9.172;2022-09-02T04:53:59;16.00;58.80
431;DHT22;202;48.764;9.172;2022-09-02T04:56:29;16.00;58.10
431;DHT22;202;48.764;9.172;2022-09-02T04:58:59;16.00;58.70
431;DHT22;202;48.764;9.172;2022-09-02T05:01:39;16.00;59.30
431;DHT22;202;48.764;9.172;2022-09-02T05:04:39;16.00;58.70
431;DHT22;202;48.764;9.172;2022-09-02T05:07:29;16.00;59.00
431;DHT22;202;48.764;9.172;2022-09-02T06:42:14;17.20;51.30
431;DHT22;202;48.764;9.172;2022-09-02T06:44:58;17.30;50.70
431;DHT22;202;48.764;9.172;2022-09-02T06:51:17;17.50;50.40
431;DHT22;202;48.764;9.172;2022-09-02T06:54:01;17.50;50.40
431;DHT22;202;48.764;9.172;2022-09-02T07:07:11;18.10;48.50
431;DHT22;202;48.764;9.172;2022-09-02T07:40:18;23.80;32.70
431;DHT22;202;48.764;9.172;2022-09-02T07:43:30;24.00;30.90
431;DHT22;202;48.764;9.172;2022-09-02T07:46:41;24.10;31.50
431;DHT22;202;48.764;9.172;2022-09-02T07:49:36;24.30;30.40
431;DHT22;202;48.764;9.172;2022-09-02T07:52:34;24.50;29.60
431;DHT22;202;48.764;9.172;2022-09-02T07:55:17;24.30;29.70
431;DHT22;202;48.764;9.172;2022-09-02T07:57:44;24.20;30.00
431;DHT22;202;48.764;9.172;2022-09-02T08:00:13;24.30;29.30
431;DHT22;202;48.764;9.172;2022-09-02T08:02:41;24.60;29.40
431;DHT22;202;48.764;9.172;2022-09-02T08:05:12;24.50;28.80
431;DHT22;202;48.764;9.172;2022-09-02T08:07:43;24.40;29.20
431;DHT22;202;48.764;9.172;2022-09-02T08:10:18;24.40;29.30
431;DHT22;202;48.764;9.172;2022-09-02T08:12:48;24.60;28.30
431;DHT22;202;48.764;9.172;2022-09-02T08:15:22;24.30;28.70
431;DHT22;202;48.764;9.172;2022-09-02T08:17:58;24.30;29.60
431;DHT22;202;48.764;9.172;2022-09-02T08:21:18;24.60;28.70
431;DHT22;202;48.764;9.172;2022-09-02T08:25:01;25.10;28.40
431;DHT22;202;48.764;9.172;2022-09-02T10:11:34;24.70;26.40
431;DHT22;202;48.764;9.172;2022-09-02T10:14:23;24.90;25.50
431;DHT22;202;48.764;9.172;2022-09-02T10:17:26;24.90;24.20
431;DHT22;202;48.764;9.172;2022-09-02T10:24:11;24.60;23.50
431;DHT22;202;48.764;9.172;2022-09-02T11:53:50;24.10;22.80
431;DHT22;202;48.764;9.172;2022-09-02T11:56:28;24.30;23.40
431;DHT22;202;48.764;9.172;2022-09-02T11:59:06;24.50;22.10
431;DHT22;202;48.764;9.172;2022-09-02T12:01:56;24.50;22.00
431;DHT22;202;48.764;9.172;2022-09-02T16:21:19;23.80;24.90
431;DHT22;202;48.764;9.172;2022-09-02T16:23:46;23.80;25.20
431;DHT22;202;48.764;9.172;2022-09-02T16:26:15;23.70;25.10
431;DHT22;202;48.764;9.172;2022-09-02T16:28:47;23.70;25.40
431;DHT22;202;48.764;9.172;2022-09-02T16:31:15;23.70;25.50
431;DHT22;202;48.764;9.172;2022-09-02T16:33:43;23.70;25.10
431;DHT22;202;48.764;9.172;2022-09-02T16:36:10;23.70;25.20
431;DHT22;202;48.764;9.172;2022-09-02T16:38:41;23.70;25.30
431;DHT22;202;48.764;9.172;2022-09-02T16:41:21;23.70;25.30
431;DHT22;202;48.764;9.172;2022-09-02T16:43:48;23.60;25.30
431;DHT22;202;48.764;9.172;2022-09-02T16:46:15;23.70;25.30
431;DHT22;202;48.764;9.172;2022-09-02T16:48:42;23.70;25.30
431;DHT22;202;48.764;9.172;2022-09-02T16:51:09;23.70;25.60
431;DHT22;202;48.764;9.172;2022-09-02T16:53:37;23.70;25.00
431;DHT22;202;48.764;9.172;2022-09-02T16:56:04;23.70;25.30
431;DHT22;202;48.764;9.172;2022-09-02T16:58:34;23.70;25.60
431;DHT22;202;48.764;9.172;2022-09-02T17:01:05;23.70;25.30
431;DHT22;202;48.764;9.172;2022-09-02T17:03:32;23.70;25.30
431;DHT22;202;48.764;9.172;2022-09-02T17:05:59;23.60;25.30
431;DHT22;202;48.764;9.172;2022-09-02T17:08:26;23.60;25.70
431;DHT22;202;48.764;9.172;2022-09-02T17:11:15;23.60;25.80
431;DHT22;202;48.764;9.172;2022-09-02T17:13:45;23.70;26.00
431;DHT22;202;48.764;9.172;2022-09-02T17:16:22;23.60;25.80
431;DHT22;202;48.764;9.172;2022-09-02T17:18:49;23.60;25.70
431;DHT22;202;48.764;9.172;2022-09-02T17:21:19;23.70;26.40
431;DHT22;202;48.764;9.172;2022-09-02T17:23:47;23.50;25.30
431;DHT22;202;48.764;9.172;2022-09-02T17:26:20;23.50;25.80
431;DHT22;202;48.764;9.172;2022-09-02T17:28:47;23.50;26.10
431;DHT22;202;48.764;9.172;2022-09-02T17:31:31;23.40;26.20
431;DHT22;202;48.764;9.172;2022-09-02T17:34:06;23.40;26.20
431;DHT22;202;48.764;9.172;2022-09-02T17:36:36;23.40;26.10
431;DHT22;202;48.764;9.172;2022-09-02T17:39:11;23.40;26.20
431;DHT22;202;48.764;9.172;2022-09-02T17:41:41;23.40;26.10
431;DHT22;202;48.764;9.172;2022-09-02T17:44:26;23.40;26.20
431;DHT22;202;48.764;9.172;2022-09-02T17:47:00;23.30;26.10
431;DHT22;202;48.764;9.172;2022-09-02T17:49:27;23.20;26.20
431;DHT22;202;48.764;9.172;2022-09-02T17:51:55;23.20;26.10
431;DHT22;202;48.764;9.172;2022-09-02T17:54:25;23.20;26.50
431;DHT22;202;48.764;9.172;2022-09-02T17:57:07;23.10;26.60
431;DHT22;202;48.764;9.172;2022-09-02T17:59:56;23.00;26.70
431;DHT22;202;48.764;9.172;2022-09-02T18:03:00;23.00;26.80
431;DHT22;202;48.764;9.172;2022-09-02T18:05:41;22.80;27.00
431;DHT22;202;48.764;9.172;2022-09-02T18:08:16;22.80;27.30
431;DHT22;202;48.764;9.172;2022-09-02T18:10:49;22.60;27.30
431;DHT22;202;48.764;9.172;2022-09-02T18:13:23;22.70;27.10
431;DHT22;202;48.764;9.172;2022-09-02T18:15:57;22.60;27.20
431;DHT22;202;48.764;9.172;2022-09-02T18:18:27;22.60;27.10
431;DHT22;202;48.764;9.172;2022-09-02T18:21:01;22.50;27.10
431;DHT22;202;48.764;9.172;2022-09-02T18:23:43;22.60;27.20
431;DHT22;202;48.764;9.172;2022-09-02T18:26:22;22.50;27.30
431;DHT22;202;48.764;9.172;2022-09-02T18:29:03;22.50;27.30
431;DHT22;202;48.764;9.172;2022-09-02T18:31:40;22.50;27.50
431;DHT22;202;48.764;9.172;2022-09-02T18:34:22;22.50;27.80
431;DHT22;202;48.764;9.172;2022-09-02T18:37:03;22.40;27.80
431;DHT22;202;48.764;9.172;2022-09-02T18:39:47;22.40;28.00
431;DHT22;202;48.764;9.172;2022-09-02T18:42:27;22.50;28.00
431;DHT22;202;48.764;9.172;2022-09-02T18:45:03;22.30;28.00
431;DHT22;202;48.764;9.172;2022-09-02T18:47:37;22.30;28.20
431;DHT22;202;48.764;9.172;2022-09-02T18:50:10;22.20;28.00
431;DHT22;202;48.764;9.172;2022-09-02T18:52:41;22.20;28.00
431;DHT22;202;48.764;9.172;2022-09-02T18:55:11;22.10;28.10
431;DHT22;202;48.764;9.172;2022-09-02T18:57:44;22.10;28.10
431;DHT22;202;48.764;9.172;2022-09-02T19:00:15;22.20;28.40
431;DHT22;202;48.764;9.172;2022-09-02T19:02:46;22.20;28.40
431;DHT22;202;48.764;9.172;2022-09-02T19:05:18;22.10;28.50
431;DHT22;202;48.764;9.172;2022-09-02T19:07:46;22.10;28.70
431;DHT22;202;48.764;9.172;2022-09-02T19:10:30;22.10;28.80
431;DHT22;202;48.764;9.172;2022-09-02T19:12:58;22.10;28.80
431;DHT22;202;48.764;9.172;2022-09-02T19:15:27;22.10;28.80
431;DHT22;202;48.764;9.172;2022-09-02T19:17:56;22.10;28.70
431;DHT22;202;48.764;9.172;2022-09-02T19:20:46;22.10;28.50
431;DHT22;202;48.764;9.172;2022-09-02T19:23:48;22.00;28.50
431;DHT22;202;48.764;9.172;2022-09-02T19:32:53;21.60;29.00
431;DHT22;202;48.764;9.172;2022-09-02T19:35:26;21.60;29.30
431;DHT22;202;48.764;9.172;2022-09-02T19:38:03;21.70;29.20
431;DHT22;202;48.764;9.172;2022-09-02T19:40:32;21.60;29.60
431;DHT22;202;48.764;9.172;2022-09-02T19:43:03;21.70;30.10
431;DHT22;202;48.764;9.172;2022-09-02T19:45:33;21.50;29.30
431;DHT22;202;48.764;9.172;2022-09-02T19:48:02;21.50;29.70
431;DHT22;202;48.764;9.172;2022-09-02T19:50:30;21.60;29.00
431;DHT22;202;48.764;9.172;2022-09-02T19:52:59;21.60;29.20
431;DHT22;202;48.764;9.172;2022-09-02T19:55:32;21.60;29.10
431;DHT22;202;48.764;9.172;2022-09-02T19:58:15;21.50;30.00
431;DHT22;202;48.764;9.172;2022-09-02T20:00:43;21.50;29.40
431;DHT22;202;48.764;9.172;2022-09-02T20:03:14;21.40;29.70
431;DHT22;202;48.764;9.172;2022-09-02T20:05:47;21.40;29.80
431;DHT22;202;48.764;9.172;2022-09-02T20:08:16;21.30;29.60
431;DHT22;202;48.764;9.172;2022-09-02T20:10:55;21.30;30.00
431;DHT22;202;48.764;9.172;2022-09-02T20:13:27;21.20;29.90
431;DHT22;202;48.764;9.172;2022-09-02T20:15:55;21.20;30.00
431;DHT22;202;48.764;9.172;2022-09-02T20:18:24;21.30;29.80
431;DHT22;202;48.764;9.172;2022-09-02T20:20:53;21.20;30.00
431;DHT22;202;48.764;9.172;2022-09-02T20:23:22;21.10;30.10
431;DHT22;202;48.764;9.172;2022-09-02T20:26:01;21.10;30.10
431;DHT22;202;48.764;9.172;2022-09-02T20:28:35;21.00;30.10
431;DHT22;202;48.764;9.172;2022-09-02T20:31:10;21.00;30.10
431;DHT22;202;48.764;9.172;2022-09-02T20:33:48;21.00;30.40
431;DHT22;202;48.764;9.172;2022-09-02T20:36:22;20.90;30.30
431;DHT22;202;48.764;9.172;2022-09-02T20:39:02;21.00;31.30
431;DHT22;202;48.764;9.172;2022-09-02T20:41:40;21.10;30.50
431;DHT22;202;48.764;9.172;2022-09-02T20:44:35;21.10;30.10
431;DHT22;202;48.764;9.172;2022-09-02T20:47:19;21.20;30.10
431;DHT22;202;48.764;9.172;2022-09-02T20:50:02;21.30;29.80
431;DHT22;202;48.764;9.172;2022-09-02T20:52:41;21.30;29.50
431;DHT22;202;48.764;9.172;2022-09-02T20:55:15;21.30;29.80
431;DHT22;202;48.764;9.172;2022-09-02T20:57:57;21.30;29.70
431;DHT22;202;48.764;9.172;2022-09-02T21:00:43;21.20;30.00
431;DHT22;202;48.764;9.172;2022-09-02T21:03:12;21.20;29.90
431;DHT22;202;48.764;9.172;2022-09-02T21:05:46;21.20;30.60
431;DHT22;202;48.764;9.172;2022-09-02T21:08:19;21.20;31.10
431;DHT22;202;48.764;9.172;2022-09-02T21:10:51;21.20;31.60
431;DHT22;202;48.764;9.172;2022-09-02T21:13:30;21.30;30.70
431;DHT22;202;48.764;9.172;2022-09-02T21:16:04;21.20;31.70
431;DHT22;202;48.764;9.172;2022-09-02T21:18:39;21.20;31.80
431;DHT22;202;48.764;9.172;2022-09-02T21:21:19;21.20;31.20
431;DHT22;202;48.764;9.172;2022-09-02T21:23:51;21.10;31.60
431;DHT22;202;48.764;9.172;2022-09-02T21:26:21;21.20;31.40
431;DHT22;202;48.764;9.172;2022-09-02T21:28:54;21.10;31.50
431;DHT22;202;48.764;9.172;2022-09-02T21:31:27;21.00;32.50
431;DHT22;202;48.764;9.172;2022-09-02T21:33:59;21.00;33.30
431;DHT22;202;48.764;9.172;2022-09-02T21:36:31;20.80;33.10
431;DHT22;202;48.764;9.172;2022-09-02T21:39:03;20.80;33.10
431;DHT22;202;48.764;9.172;2022-09-02T21:41:34;20.90;33.20
431;DHT22;202;48.764;9.172;2022-09-02T21:44:09;20.80;32.20
431;DHT22;202;48.764;9.172;2022-09-02T21:46:44;20.70;33.00
431;DHT22;202;48.764;9.172;2022-09-02T21:49:33;20.70;32.20
431;DHT22;202;48.764;9.172;2022-09-02T21:52:11;20.60;33.00
431;DHT22;202;48.764;9.172;2022-09-02T21:54:50;20.70;33.00
431;DHT22;202;48.764;9.172;2022-09-02T21:57:31;20.60;32.90
431;DHT22;202;48.764;9.172;2022-09-02T22:00:04;20.70;33.00
431;DHT22;202;48.764;9.172;2022-09-02T22:02:39;20.60;33.00
431;DHT22;202;48.764;9.172;2022-09-02T22:05:22;20.60;33.00
431;DHT22;202;48.764;9.172;2022-09-02T22:07:59;20.70;32.50
431;DHT22;202;48.764;9.172;2022-09-02T22:10:33;20.60;33.00
431;DHT22;202;48.764;9.172;2022-09-02T22:13:04;20.50;32.90
431;DHT22;202;48.764;9.172;2022-09-02T22:15:43;20.40;32.80
431;DHT22;202;48.764;9.172;2022-09-02T22:18:29;20.40;32.80
431;DHT22;202;48.764;9.172;2022-09-02T22:21:04;20.30;33.00
431;DHT22;202;48.764;9.172;2022-09-02T22:23:40;20.20;33.60
431;DHT22;202;48.764;9.172;2022-09-02T22:26:32;20.10;33.90
431;DHT22;202;48.764;9.172;2022-09-02T22:29:05;20.00;35.30
431;DHT22;202;48.764;9.172;2022-09-02T22:31:41;20.00;35.30
431;DHT22;202;48.764;9.172;2022-09-02T22:34:22;20.10;34.90
431;DHT22;202;48.764;9.172;2022-09-02T22:37:15;20.10;35.10
431;DHT22;202;48.764;9.172;2022-09-02T22:39:50;20.00;35.60
431;DHT22;202;48.764;9.172;2022-09-02T22:42:29;20.10;35.20
431;DHT22;202;48.764;9.172;2022-09-02T22:45:09;19.90;36.00
431;DHT22;202;48.764;9.172;2022-09-02T22:47:58;19.80;36.30
431;DHT22;202;48.764;9.172;2022-09-02T22:50:51;19.80;36.30
431;DHT22;202;48.764;9.172;2022-09-02T22:53:39;19.80;36.10
431;DHT22;202;48.764;9.172;2022-09-02T22:56:10;19.70;36.50
431;DHT22;202;48.764;9.172;2022-09-02T23:02:40;19.60;37.50
431;DHT22;202;48.764;9.172;2022-09-02T23:05:30;19.60;37.20
431;DHT22;202;48.764;9.172;2022-09-02T23:08:13;19.50;37.50
431;DHT22;202;48.764;9.172;2022-09-02T23:11:00;19.50;37.50
431;DHT22;202;48.764;9.172;2022-09-02T23:13:45;19.60;37.30
431;DHT22;202;48.764;9.172;2022-09-02T23:16:39;19.50;37.30
431;DHT22;202;48.764;9.172;2022-09-02T23:19:16;19.50;37.70
431;DHT22;202;48.764;9.172;2022-09-02T23:22:01;19.40;37.80
431;DHT22;202;48.764;9.172;2022-09-02T23:24:44;19.30;39.10
431;DHT22;202;48.764;9.172;2022-09-02T23:30:13;19.60;37.20
431;DHT22;202;48.764;9.172;2022-09-02T23:33:04;19.50;37.50
431;DHT22;202;48.764;9.172;2022-09-02T23:35:51;19.60;37.20
431;DHT22;202;48.764;9.172;2022-09-02T23:38:50;19.40;38.00
431;DHT22;202;48.764;9.172;2022-09-02T23:41:31;19.40;38.80
431;DHT22;202;48.764;9.172;2022-09-02T23:44:11;19.30;39.50
431;DHT22;202;48.764;9.172;2022-09-02T23:50:22;19.30;38.40
431;DHT22;202;48.764;9.172;2022-09-02T23:57:09;19.30;38.90
